Terminal Aerodrome Forecast
Issued by NWS

Home | Current Version | Previous Version | Text Only | Print | Product List | Glossary On
Versions: 1 2 3 4 5 6 7 8 9 10 11 12 13 14 15 16 17 18 19 20 21 22 23 24 25 26 27 28 29 30 31 32 33 34 35 36 37 38 39 40 41 42 43 44 45 46 47 48 49 50
000
FTUS45 KBOU 060340 AAB
TAFAPA
TAF AMD
KAPA 060340Z 0604/0624 34006KT P6SM -RA SCT007 BKN020 OVC050
      TEMPO 0604/0606 5SM -RA BR BKN007
     FM060600 VRB05KT P6SM VCSH SCT015 BKN025 OVC035
      TEMPO 0606/0608 5SM -RA BR BKN012
     FM060800 23005KT P6SM VCSH SCT025 OVC050
     FM061600 13006KT P6SM SCT050 OVC070
     FM062100 02007KT P6SM SCT040 BKN080 OVC120 PROB30 0621/0624
      VRB15G30KT -TSRA BKN030CB=

USA.gov is the U.S. government's official web portal to all federal, state and local government web resources and services.